sensor_id;sensor_type;location;lat;lon;timestamp;P1;durP1;ratioP1;P2;durP2;ratioP2
50543;SDS011;41176;44.032;20.900;2023-02-08T00:01:28;5.63;;;2.67;;
50543;SDS011;41176;44.032;20.900;2023-02-08T00:03:54;2.10;;;1.35;;
50543;SDS011;41176;44.032;20.900;2023-02-08T00:06:19;8.15;;;2.97;;
50543;SDS011;41176;44.032;20.900;2023-02-08T00:08:45;3.58;;;1.83;;
50543;SDS011;41176;44.032;20.900;2023-02-08T00:11:11;5.13;;;2.30;;
50543;SDS011;41176;44.032;20.900;2023-02-08T00:13:38;5.45;;;2.38;;
50543;SDS011;41176;44.032;20.900;2023-02-08T00:16:05;7.30;;;2.17;;
50543;SDS011;41176;44.032;20.900;2023-02-08T00:18:31;1.50;;;1.40;;
50543;SDS011;41176;44.032;20.900;2023-02-08T00:20:57;1.75;;;0.98;;
50543;SDS011;41176;44.032;20.900;2023-02-08T00:23:23;5.30;;;1.55;;
50543;SDS011;41176;44.032;20.900;2023-02-08T00:25:49;2.30;;;1.23;;
50543;SDS011;41176;44.032;20.900;2023-02-08T00:28:16;1.27;;;0.80;;
50543;SDS011;41176;44.032;20.900;2023-02-08T00:30:42;5.43;;;1.50;;
50543;SDS011;41176;44.032;20.900;2023-02-08T00:33:09;0.85;;;0.80;;
50543;SDS011;41176;44.032;20.900;2023-02-08T00:35:34;2.80;;;1.42;;
50543;SDS011;41176;44.032;20.900;2023-02-08T00:38:00;3.58;;;2.33;;
50543;SDS011;41176;44.032;20.900;2023-02-08T00:40:26;7.30;;;2.72;;
50543;SDS011;41176;44.032;20.900;2023-02-08T00:42:52;5.80;;;2.97;;
50543;SDS011;41176;44.032;20.900;2023-02-08T00:45:18;2.53;;;1.85;;
50543;SDS011;41176;44.032;20.900;2023-02-08T00:47:44;4.47;;;2.30;;
50543;SDS011;41176;44.032;20.900;2023-02-08T00:50:09;4.20;;;1.98;;
50543;SDS011;41176;44.032;20.900;2023-02-08T00:52:36;1.73;;;1.48;;
50543;SDS011;41176;44.032;20.900;2023-02-08T00:55:01;2.83;;;1.67;;
50543;SDS011;41176;44.032;20.900;2023-02-08T00:57:27;2.35;;;1.20;;
50543;SDS011;41176;44.032;20.900;2023-02-08T00:59:53;1.90;;;1.20;;
50543;SDS011;41176;44.032;20.900;2023-02-08T01:02:19;2.13;;;1.73;;
50543;SDS011;41176;44.032;20.900;2023-02-08T01:04:44;3.15;;;1.58;;
50543;SDS011;41176;44.032;20.900;2023-02-08T01:07:10;6.20;;;2.25;;
50543;SDS011;41176;44.032;20.900;2023-02-08T01:09:36;3.35;;;2.28;;
50543;SDS011;41176;44.032;20.900;2023-02-08T01:12:01;2.10;;;1.52;;
50543;SDS011;41176;44.032;20.900;2023-02-08T01:14:27;6.05;;;4.05;;
50543;SDS011;41176;44.032;20.900;2023-02-08T01:16:53;3.80;;;2.13;;
50543;SDS011;41176;44.032;20.900;2023-02-08T01:19:19;4.00;;;2.90;;
50543;SDS011;41176;44.032;20.900;2023-02-08T01:21:45;3.30;;;2.40;;
50543;SDS011;41176;44.032;20.900;2023-02-08T01:24:13;6.38;;;3.83;;
50543;SDS011;41176;44.032;20.900;2023-02-08T01:26:38;3.03;;;2.35;;
50543;SDS011;41176;44.032;20.900;2023-02-08T01:29:04;5.50;;;3.75;;
50543;SDS011;41176;44.032;20.900;2023-02-08T01:31:34;3.78;;;2.25;;
50543;SDS011;41176;44.032;20.900;2023-02-08T01:34:02;6.07;;;3.15;;
50543;SDS011;41176;44.032;20.900;2023-02-08T01:36:30;2.95;;;1.85;;
50543;SDS011;41176;44.032;20.900;2023-02-08T01:38:56;3.85;;;2.03;;
50543;SDS011;41176;44.032;20.900;2023-02-08T01:41:27;4.47;;;2.67;;
50543;SDS011;41176;44.032;20.900;2023-02-08T01:46:38;2.53;;;2.33;;
50543;SDS011;41176;44.032;20.900;2023-02-08T01:49:07;5.85;;;3.10;;
50543;SDS011;41176;44.032;20.900;2023-02-08T01:51:47;8.07;;;4.07;;
50543;SDS011;41176;44.032;20.900;2023-02-08T01:56:46;3.30;;;2.28;;
50543;SDS011;41176;44.032;20.900;2023-02-08T01:59:14;5.82;;;3.40;;
50543;SDS011;41176;44.032;20.900;2023-02-08T02:01:44;3.95;;;2.35;;
50543;SDS011;41176;44.032;20.900;2023-02-08T02:04:11;4.13;;;2.28;;
50543;SDS011;41176;44.032;20.900;2023-02-08T02:06:39;5.43;;;2.55;;
50543;SDS011;41176;44.032;20.900;2023-02-08T02:09:32;6.43;;;2.17;;
50543;SDS011;41176;44.032;20.900;2023-02-08T02:11:57;3.42;;;1.45;;
50543;SDS011;41176;44.032;20.900;2023-02-08T02:14:23;3.28;;;2.15;;
50543;SDS011;41176;44.032;20.900;2023-02-08T02:16:49;3.58;;;2.90;;
50543;SDS011;41176;44.032;20.900;2023-02-08T02:22:18;1.42;;;1.20;;
50543;SDS011;41176;44.032;20.900;2023-02-08T02:25:06;5.05;;;3.40;;
50543;SDS011;41176;44.032;20.900;2023-02-08T02:54:28;4.57;;;2.63;;
50543;SDS011;41176;44.032;20.900;2023-02-08T02:57:00;5.57;;;1.85;;
50543;SDS011;41176;44.032;20.900;2023-02-08T02:59:31;13.90;;;3.33;;
50543;SDS011;41176;44.032;20.900;2023-02-08T03:01:58;3.28;;;2.97;;
50543;SDS011;41176;44.032;20.900;2023-02-08T03:26:40;3.20;;;1.35;;
50543;SDS011;41176;44.032;20.900;2023-02-08T03:29:16;2.45;;;1.98;;
50543;SDS011;41176;44.032;20.900;2023-02-08T03:32:20;4.70;;;3.17;;
50543;SDS011;41176;44.032;20.900;2023-02-08T03:35:01;2.28;;;1.75;;
50543;SDS011;41176;44.032;20.900;2023-02-08T03:37:29;1.98;;;1.60;;
50543;SDS011;41176;44.032;20.900;2023-02-08T03:40:01;4.22;;;1.63;;
50543;SDS011;41176;44.032;20.900;2023-02-08T03:42:46;5.35;;;1.77;;
50543;SDS011;41176;44.032;20.900;2023-02-08T03:45:17;1.60;;;1.35;;
50543;SDS011;41176;44.032;20.900;2023-02-08T03:47:50;4.47;;;2.80;;
50543;SDS011;41176;44.032;20.900;2023-02-08T03:50:19;4.30;;;1.65;;
50543;SDS011;41176;44.032;20.900;2023-02-08T03:52:46;1.10;;;0.93;;
50543;SDS011;41176;44.032;20.900;2023-02-08T03:55:17;1.42;;;1.33;;
50543;SDS011;41176;44.032;20.900;2023-02-08T04:00:37;1.83;;;1.30;;
50543;SDS011;41176;44.032;20.900;2023-02-08T04:03:10;2.53;;;1.38;;
50543;SDS011;41176;44.032;20.900;2023-02-08T04:05:41;3.63;;;1.90;;
50543;SDS011;41176;44.032;20.900;2023-02-08T04:08:07;1.13;;;1.00;;
50543;SDS011;41176;44.032;20.900;2023-02-08T04:10:33;2.80;;;2.58;;
50543;SDS011;41176;44.032;20.900;2023-02-08T04:12:59;5.63;;;2.38;;
50543;SDS011;41176;44.032;20.900;2023-02-08T04:15:24;1.88;;;1.40;;
50543;SDS011;41176;44.032;20.900;2023-02-08T04:17:51;4.63;;;2.22;;
50543;SDS011;41176;44.032;20.900;2023-02-08T04:20:17;1.88;;;1.55;;
50543;SDS011;41176;44.032;20.900;2023-02-08T04:22:43;1.35;;;1.25;;
50543;SDS011;41176;44.032;20.900;2023-02-08T04:25:09;2.30;;;1.88;;
50543;SDS011;41176;44.032;20.900;2023-02-08T04:27:34;3.55;;;1.83;;
50543;SDS011;41176;44.032;20.900;2023-02-08T04:30:00;1.63;;;1.33;;
50543;SDS011;41176;44.032;20.900;2023-02-08T04:32:26;2.05;;;1.50;;
50543;SDS011;41176;44.032;20.900;2023-02-08T04:34:51;2.63;;;1.63;;
50543;SDS011;41176;44.032;20.900;2023-02-08T04:37:17;2.83;;;1.95;;
50543;SDS011;41176;44.032;20.900;2023-02-08T04:39:43;3.75;;;1.75;;
50543;SDS011;41176;44.032;20.900;2023-02-08T04:42:08;3.08;;;2.55;;
50543;SDS011;41176;44.032;20.900;2023-02-08T04:44:34;1.38;;;1.27;;
50543;SDS011;41176;44.032;20.900;2023-02-08T04:47:00;0.50;;;0.50;;
50543;SDS011;41176;44.032;20.900;2023-02-08T04:49:25;1.90;;;1.75;;
50543;SDS011;41176;44.032;20.900;2023-02-08T04:51:51;1.15;;;1.05;;
50543;SDS011;41176;44.032;20.900;2023-02-08T04:54:17;3.97;;;1.92;;
50543;SDS011;41176;44.032;20.900;2023-02-08T04:56:43;3.92;;;2.03;;
50543;SDS011;41176;44.032;20.900;2023-02-08T04:59:08;0.57;;;0.47;;
50543;SDS011;41176;44.032;20.900;2023-02-08T05:01:35;4.00;;;1.60;;
50543;SDS011;41176;44.032;20.900;2023-02-08T05:04:00;2.38;;;2.08;;
50543;SDS011;41176;44.032;20.900;2023-02-08T05:06:26;1.67;;;1.30;;
50543;SDS011;41176;44.032;20.900;2023-02-08T05:08:52;2.25;;;1.77;;
50543;SDS011;41176;44.032;20.900;2023-02-08T05:11:21;2.63;;;2.00;;
50543;SDS011;41176;44.032;20.900;2023-02-08T05:13:48;0.82;;;0.75;;
50543;SDS011;41176;44.032;20.900;2023-02-08T05:16:14;1.50;;;1.27;;
50543;SDS011;41176;44.032;20.900;2023-02-08T05:18:40;2.85;;;2.30;;
50543;SDS011;41176;44.032;20.900;2023-02-08T05:21:06;2.72;;;1.77;;
50543;SDS011;41176;44.032;20.900;2023-02-08T05:23:31;2.03;;;1.02;;
50543;SDS011;41176;44.032;20.900;2023-02-08T05:25:57;2.25;;;2.03;;
50543;SDS011;41176;44.032;20.900;2023-02-08T05:28:23;2.00;;;1.67;;
50543;SDS011;41176;44.032;20.900;2023-02-08T05:30:49;0.52;;;0.45;;
50543;SDS011;41176;44.032;20.900;2023-02-08T05:33:15;4.28;;;3.40;;
50543;SDS011;41176;44.032;20.900;2023-02-08T05:35:42;1.80;;;1.70;;
50543;SDS011;41176;44.032;20.900;2023-02-08T05:38:09;0.63;;;0.40;;
50543;SDS011;41176;44.032;20.900;2023-02-08T05:40:34;2.45;;;1.20;;
50543;SDS011;41176;44.032;20.900;2023-02-08T05:43:00;1.08;;;0.98;;
50543;SDS011;41176;44.032;20.900;2023-02-08T05:45:26;2.42;;;1.98;;
50543;SDS011;41176;44.032;20.900;2023-02-08T05:47:51;1.38;;;1.27;;
50543;SDS011;41176;44.032;20.900;2023-02-08T05:50:17;4.20;;;3.17;;
50543;SDS011;41176;44.032;20.900;2023-02-08T05:52:43;4.05;;;2.22;;
50543;SDS011;41176;44.032;20.900;2023-02-08T05:55:08;1.88;;;1.50;;
50543;SDS011;41176;44.032;20.900;2023-02-08T05:57:34;1.60;;;1.13;;
50543;SDS011;41176;44.032;20.900;2023-02-08T06:00:01;3.15;;;2.28;;
50543;SDS011;41176;44.032;20.900;2023-02-08T06:02:28;6.03;;;2.00;;
50543;SDS011;41176;44.032;20.900;2023-02-08T06:04:55;10.02;;;3.80;;
50543;SDS011;41176;44.032;20.900;2023-02-08T06:07:20;2.35;;;1.92;;
50543;SDS011;41176;44.032;20.900;2023-02-08T06:09:46;5.55;;;1.92;;
50543;SDS011;41176;44.032;20.900;2023-02-08T06:12:12;2.45;;;2.22;;
50543;SDS011;41176;44.032;20.900;2023-02-08T06:14:37;2.03;;;1.60;;
50543;SDS011;41176;44.032;20.900;2023-02-08T06:17:03;2.42;;;2.22;;
50543;SDS011;41176;44.032;20.900;2023-02-08T06:19:28;2.97;;;2.63;;
50543;SDS011;41176;44.032;20.900;2023-02-08T06:21:54;7.30;;;3.65;;
50543;SDS011;41176;44.032;20.900;2023-02-08T06:24:20;3.67;;;2.35;;
50543;SDS011;41176;44.032;20.900;2023-02-08T06:26:45;4.00;;;3.20;;
50543;SDS011;41176;44.032;20.900;2023-02-08T06:29:11;1.33;;;1.20;;
50543;SDS011;41176;44.032;20.900;2023-02-08T06:31:37;3.95;;;2.88;;
50543;SDS011;41176;44.032;20.900;2023-02-08T06:34:02;2.72;;;2.05;;
50543;SDS011;41176;44.032;20.900;2023-02-08T06:36:28;3.55;;;2.28;;
50543;SDS011;41176;44.032;20.900;2023-02-08T06:38:54;5.70;;;3.28;;
50543;SDS011;41176;44.032;20.900;2023-02-08T06:41:19;3.20;;;2.90;;
50543;SDS011;41176;44.032;20.900;2023-02-08T06:43:45;3.35;;;2.33;;
50543;SDS011;41176;44.032;20.900;2023-02-08T06:46:10;3.30;;;2.75;;
50543;SDS011;41176;44.032;20.900;2023-02-08T06:48:36;2.35;;;2.15;;
50543;SDS011;41176;44.032;20.900;2023-02-08T06:51:02;2.45;;;2.22;;
50543;SDS011;41176;44.032;20.900;2023-02-08T06:53:28;1.95;;;1.30;;
50543;SDS011;41176;44.032;20.900;2023-02-08T06:55:54;2.90;;;2.65;;
50543;SDS011;41176;44.032;20.900;2023-02-08T06:58:20;1.52;;;1.42;;
50543;SDS011;41176;44.032;20.900;2023-02-08T07:00:45;1.00;;;0.88;;
50543;SDS011;41176;44.032;20.900;2023-02-08T07:03:12;2.83;;;1.92;;
50543;SDS011;41176;44.032;20.900;2023-02-08T07:05:41;2.72;;;1.92;;
50543;SDS011;41176;44.032;20.900;2023-02-08T07:08:08;3.80;;;1.85;;
50543;SDS011;41176;44.032;20.900;2023-02-08T07:10:33;2.40;;;1.65;;
50543;SDS011;41176;44.032;20.900;2023-02-08T07:13:00;1.63;;;1.48;;
50543;SDS011;41176;44.032;20.900;2023-02-08T07:15:26;3.10;;;2.25;;
50543;SDS011;41176;44.032;20.900;2023-02-08T07:17:52;2.00;;;1.85;;
50543;SDS011;41176;44.032;20.900;2023-02-08T07:20:17;1.92;;;1.55;;
50543;SDS011;41176;44.032;20.900;2023-02-08T07:22:43;7.07;;;3.50;;
50543;SDS011;41176;44.032;20.900;2023-02-08T07:25:09;2.35;;;1.98;;
50543;SDS011;41176;44.032;20.900;2023-02-08T07:27:34;5.50;;;2.00;;
50543;SDS011;41176;44.032;20.900;2023-02-08T07:30:00;10.88;;;3.03;;
50543;SDS011;41176;44.032;20.900;2023-02-08T07:32:26;2.13;;;1.90;;
50543;SDS011;41176;44.032;20.900;2023-02-08T07:34:52;2.42;;;1.52;;
50543;SDS011;41176;44.032;20.900;2023-02-08T07:37:20;0.35;;;0.25;;
50543;SDS011;41176;44.032;20.900;2023-02-08T07:39:46;4.47;;;2.53;;
50543;SDS011;41176;44.032;20.900;2023-02-08T07:42:12;1.70;;;1.60;;
50543;SDS011;41176;44.032;20.900;2023-02-08T07:44:37;2.13;;;1.92;;
50543;SDS011;41176;44.032;20.900;2023-02-08T07:47:04;1.10;;;1.02;;
50543;SDS011;41176;44.032;20.900;2023-02-08T07:49:30;2.40;;;1.42;;
50543;SDS011;41176;44.032;20.900;2023-02-08T07:51:57;3.50;;;1.75;;
50543;SDS011;41176;44.032;20.900;2023-02-08T07:54:23;6.45;;;3.50;;
50543;SDS011;41176;44.032;20.900;2023-02-08T07:56:49;8.00;;;3.95;;
50543;SDS011;41176;44.032;20.900;2023-02-08T07:59:14;1.65;;;1.35;;
50543;SDS011;41176;44.032;20.900;2023-02-08T08:01:40;3.65;;;2.50;;
50543;SDS011;41176;44.032;20.900;2023-02-08T08:04:06;2.03;;;1.75;;
50543;SDS011;41176;44.032;20.900;2023-02-08T08:06:31;6.70;;;3.03;;
50543;SDS011;41176;44.032;20.900;2023-02-08T08:08:57;3.75;;;2.05;;
50543;SDS011;41176;44.032;20.900;2023-02-08T08:11:22;4.63;;;2.92;;
50543;SDS011;41176;44.032;20.900;2023-02-08T08:13:48;5.30;;;1.83;;
50543;SDS011;41176;44.032;20.900;2023-02-08T08:16:14;4.60;;;2.72;;
50543;SDS011;41176;44.032;20.900;2023-02-08T08:18:41;8.77;;;7.47;;
50543;SDS011;41176;44.032;20.900;2023-02-08T08:21:06;8.10;;;3.97;;
50543;SDS011;41176;44.032;20.900;2023-02-08T08:23:32;4.18;;;3.47;;
50543;SDS011;41176;44.032;20.900;2023-02-08T08:26:04;3.15;;;2.67;;
50543;SDS011;41176;44.032;20.900;2023-02-08T08:28:34;13.48;;;9.13;;
50543;SDS011;41176;44.032;20.900;2023-02-08T08:31:00;5.30;;;3.95;;
50543;SDS011;41176;44.032;20.900;2023-02-08T08:33:26;4.38;;;4.05;;
50543;SDS011;41176;44.032;20.900;2023-02-08T08:35:52;4.88;;;4.40;;
50543;SDS011;41176;44.032;20.900;2023-02-08T08:38:17;8.70;;;5.05;;
50543;SDS011;41176;44.032;20.900;2023-02-08T08:40:43;5.47;;;3.03;;
50543;SDS011;41176;44.032;20.900;2023-02-08T08:43:09;2.67;;;2.13;;
50543;SDS011;41176;44.032;20.900;2023-02-08T08:45:34;4.88;;;4.43;;
50543;SDS011;41176;44.032;20.900;2023-02-08T08:48:00;2.80;;;1.70;;
50543;SDS011;41176;44.032;20.900;2023-02-08T08:50:27;3.83;;;1.67;;
50543;SDS011;41176;44.032;20.900;2023-02-08T08:52:53;0.90;;;0.80;;
50543;SDS011;41176;44.032;20.900;2023-02-08T08:55:18;1.83;;;1.52;;
50543;SDS011;41176;44.032;20.900;2023-02-08T08:57:44;3.55;;;2.50;;
50543;SDS011;41176;44.032;20.900;2023-02-08T09:00:10;3.10;;;1.85;;
50543;SDS011;41176;44.032;20.900;2023-02-08T09:02:36;2.15;;;1.95;;
50543;SDS011;41176;44.032;20.900;2023-02-08T09:05:02;4.22;;;2.97;;
50543;SDS011;41176;44.032;20.900;2023-02-08T09:07:29;3.65;;;3.10;;
50543;SDS011;41176;44.032;20.900;2023-02-08T09:09:55;4.82;;;2.70;;
50543;SDS011;41176;44.032;20.900;2023-02-08T09:12:20;7.60;;;3.22;;
50543;SDS011;41176;44.032;20.900;2023-02-08T09:14:46;2.63;;;1.02;;
50543;SDS011;41176;44.032;20.900;2023-02-08T09:17:12;2.30;;;1.85;;
50543;SDS011;41176;44.032;20.900;2023-02-08T09:19:38;3.05;;;2.47;;
50543;SDS011;41176;44.032;20.900;2023-02-08T09:22:06;5.80;;;3.78;;
50543;SDS011;41176;44.032;20.900;2023-02-08T09:24:33;2.22;;;1.52;;
50543;SDS011;41176;44.032;20.900;2023-02-08T09:26:59;4.07;;;2.58;;
50543;SDS011;41176;44.032;20.900;2023-02-08T09:29:24;2.75;;;1.45;;
50543;SDS011;41176;44.032;20.900;2023-02-08T09:31:53;5.75;;;2.65;;
50543;SDS011;41176;44.032;20.900;2023-02-08T09:34:19;5.57;;;3.05;;
50543;SDS011;41176;44.032;20.900;2023-02-08T09:36:45;6.75;;;2.90;;
50543;SDS011;41176;44.032;20.900;2023-02-08T09:39:13;13.05;;;3.85;;
50543;SDS011;41176;44.032;20.900;2023-02-08T09:49:57;12.60;;;5.75;;
50543;SDS011;41176;44.032;20.900;2023-02-08T09:52:33;7.50;;;4.40;;
50543;SDS011;41176;44.032;20.900;2023-02-08T09:55:48;23.00;;;9.18;;
50543;SDS011;41176;44.032;20.900;2023-02-08T09:58:48;5.40;;;3.53;;
50543;SDS011;41176;44.032;20.900;2023-02-08T10:00:52;7.75;;;4.70;;
50543;SDS011;41176;44.032;20.900;2023-02-08T10:03:33;5.53;;;3.72;;
50543;SDS011;41176;44.032;20.900;2023-02-08T10:06:03;7.30;;;4.32;;
50543;SDS011;41176;44.032;20.900;2023-02-08T10:08:30;5.75;;;3.22;;
50543;SDS011;41176;44.032;20.900;2023-02-08T10:11:03;4.68;;;2.95;;
50543;SDS011;41176;44.032;20.900;2023-02-08T10:35:44;19.77;;;7.30;;
50543;SDS011;41176;44.032;20.900;2023-02-08T10:40:44;10.27;;;5.28;;
50543;SDS011;41176;44.032;20.900;2023-02-08T10:51:28;8.63;;;4.20;;
50543;SDS011;41176;44.032;20.900;2023-02-08T10:53:54;9.15;;;3.60;;
50543;SDS011;41176;44.032;20.900;2023-02-08T10:57:04;5.93;;;3.42;;
50543;SDS011;41176;44.032;20.900;2023-02-08T10:59:26;7.25;;;3.50;;
50543;SDS011;41176;44.032;20.900;2023-02-08T11:01:55;8.70;;;4.35;;
50543;SDS011;41176;44.032;20.900;2023-02-08T11:04:22;8.18;;;3.05;;
50543;SDS011;41176;44.032;20.900;2023-02-08T11:06:49;4.22;;;2.90;;
50543;SDS011;41176;44.032;20.900;2023-02-08T11:09:22;5.72;;;3.28;;
50543;SDS011;41176;44.032;20.900;2023-02-08T11:11:54;4.00;;;2.42;;
50543;SDS011;41176;44.032;20.900;2023-02-08T11:14:23;9.80;;;5.03;;
50543;SDS011;41176;44.032;20.900;2023-02-08T11:16:50;6.93;;;3.38;;
50543;SDS011;41176;44.032;20.900;2023-02-08T11:19:21;11.48;;;4.45;;
50543;SDS011;41176;44.032;20.900;2023-02-08T11:22:19;7.68;;;4.57;;
50543;SDS011;41176;44.032;20.900;2023-02-08T11:24:58;7.00;;;4.03;;
50543;SDS011;41176;44.032;20.900;2023-02-08T11:27:35;5.22;;;3.47;;
50543;SDS011;41176;44.032;20.900;2023-02-08T11:32:38;7.30;;;4.05;;
50543;SDS011;41176;44.032;20.900;2023-02-08T11:35:17;3.22;;;1.90;;
50543;SDS011;41176;44.032;20.900;2023-02-08T11:37:52;9.82;;;4.38;;
50543;SDS011;41176;44.032;20.900;2023-02-08T11:40:36;6.03;;;2.95;;
50543;SDS011;41176;44.032;20.900;2023-02-08T11:45:53;6.60;;;3.45;;
50543;SDS011;41176;44.032;20.900;2023-02-08T11:50:53;5.13;;;2.70;;
50543;SDS011;41176;44.032;20.900;2023-02-08T11:53:25;4.78;;;2.70;;
50543;SDS011;41176;44.032;20.900;2023-02-08T11:56:38;6.63;;;4.32;;
50543;SDS011;41176;44.032;20.900;2023-02-08T12:01:32;8.13;;;3.38;;
50543;SDS011;41176;44.032;20.900;2023-02-08T12:04:14;11.32;;;5.30;;
50543;SDS011;41176;44.032;20.900;2023-02-08T12:24:33;6.38;;;3.03;;
50543;SDS011;41176;44.032;20.900;2023-02-08T12:36:00;7.22;;;4.25;;
50543;SDS011;41176;44.032;20.900;2023-02-08T12:44:26;5.03;;;2.85;;
50543;SDS011;41176;44.032;20.900;2023-02-08T12:49:31;4.43;;;2.45;;
50543;SDS011;41176;44.032;20.900;2023-02-08T12:55:08;5.75;;;3.25;;
50543;SDS011;41176;44.032;20.900;2023-02-08T12:57:48;4.28;;;2.83;;
50543;SDS011;41176;44.032;20.900;2023-02-08T13:00:19;3.38;;;2.13;;
50543;SDS011;41176;44.032;20.900;2023-02-08T13:03:09;6.90;;;3.13;;
50543;SDS011;41176;44.032;20.900;2023-02-08T13:10:41;6.13;;;3.22;;
50543;SDS011;41176;44.032;20.900;2023-02-08T13:13:16;3.78;;;2.50;;
50543;SDS011;41176;44.032;20.900;2023-02-08T13:18:49;4.28;;;2.60;;
50543;SDS011;41176;44.032;20.900;2023-02-08T13:21:28;2.58;;;1.77;;
50543;SDS011;41176;44.032;20.900;2023-02-08T13:24:14;4.65;;;3.00;;
50543;SDS011;41176;44.032;20.900;2023-02-08T13:26:57;6.82;;;2.88;;
50543;SDS011;41176;44.032;20.900;2023-02-08T13:29:23;4.97;;;3.65;;
50543;SDS011;41176;44.032;20.900;2023-02-08T13:31:50;6.18;;;2.65;;
50543;SDS011;41176;44.032;20.900;2023-02-08T13:37:19;4.28;;;2.05;;
50543;SDS011;41176;44.032;20.900;2023-02-08T13:40:01;2.75;;;1.83;;
50543;SDS011;41176;44.032;20.900;2023-02-08T13:43:05;7.10;;;2.67;;
50543;SDS011;41176;44.032;20.900;2023-02-08T13:45:49;3.83;;;2.60;;
50543;SDS011;41176;44.032;20.900;2023-02-08T13:48:16;2.28;;;1.85;;
50543;SDS011;41176;44.032;20.900;2023-02-08T13:53:17;2.72;;;2.13;;
50543;SDS011;41176;44.032;20.900;2023-02-08T13:56:18;4.50;;;1.52;;
50543;SDS011;41176;44.032;20.900;2023-02-08T13:59:01;1.67;;;1.45;;
50543;SDS011;41176;44.032;20.900;2023-02-08T14:01:28;1.15;;;1.05;;
50543;SDS011;41176;44.032;20.900;2023-02-08T14:06:32;4.32;;;3.13;;
50543;SDS011;41176;44.032;20.900;2023-02-08T14:19:35;3.83;;;2.20;;
50543;SDS011;41176;44.032;20.900;2023-02-08T14:24:44;4.65;;;3.25;;
50543;SDS011;41176;44.032;20.900;2023-02-08T14:27:22;8.75;;;4.70;;
50543;SDS011;41176;44.032;20.900;2023-02-08T14:30:36;5.18;;;3.15;;
50543;SDS011;41176;44.032;20.900;2023-02-08T14:37:49;8.35;;;3.83;;
50543;SDS011;41176;44.032;20.900;2023-02-08T14:40:48;6.97;;;3.25;;
50543;SDS011;41176;44.032;20.900;2023-02-08T14:45:54;4.72;;;2.55;;
50543;SDS011;41176;44.032;20.900;2023-02-08T14:48:24;2.88;;;2.25;;
50543;SDS011;41176;44.032;20.900;2023-02-08T14:53:24;2.20;;;1.65;;
50543;SDS011;41176;44.032;20.900;2023-02-08T14:58:24;1.45;;;1.35;;
50543;SDS011;41176;44.032;20.900;2023-02-08T15:00:56;5.18;;;3.03;;
50543;SDS011;41176;44.032;20.900;2023-02-08T15:03:29;4.57;;;1.75;;
50543;SDS011;41176;44.032;20.900;2023-02-08T15:06:17;7.15;;;2.55;;
50543;SDS011;41176;44.032;20.900;2023-02-08T15:09:15;4.27;;;2.87;;
50543;SDS011;41176;44.032;20.900;2023-02-08T15:12:00;2.72;;;1.85;;
50543;SDS011;41176;44.032;20.900;2023-02-08T15:14:28;2.40;;;1.45;;
50543;SDS011;41176;44.032;20.900;2023-02-08T15:16:57;4.30;;;3.15;;
50543;SDS011;41176;44.032;20.900;2023-02-08T15:19:27;6.18;;;3.53;;
50543;SDS011;41176;44.032;20.900;2023-02-08T15:22:15;6.57;;;3.58;;
50543;SDS011;41176;44.032;20.900;2023-02-08T15:24:51;9.98;;;4.63;;
50543;SDS011;41176;44.032;20.900;2023-02-08T15:27:22;16.48;;;6.57;;
50543;SDS011;41176;44.032;20.900;2023-02-08T15:29:53;9.40;;;5.47;;
50543;SDS011;41176;44.032;20.900;2023-02-08T15:32:20;5.68;;;3.45;;
50543;SDS011;41176;44.032;20.900;2023-02-08T15:34:54;1.90;;;1.48;;
50543;SDS011;41176;44.032;20.900;2023-02-08T15:37:24;2.30;;;1.98;;
50543;SDS011;41176;44.032;20.900;2023-02-08T15:39:55;5.75;;;3.53;;
50543;SDS011;41176;44.032;20.900;2023-02-08T15:42:23;7.50;;;4.10;;
50543;SDS011;41176;44.032;20.900;2023-02-08T15:44:53;8.85;;;3.85;;
50543;SDS011;41176;44.032;20.900;2023-02-08T15:47:32;10.60;;;7.20;;
50543;SDS011;41176;44.032;20.900;2023-02-08T15:50:00;15.68;;;7.43;;
50543;SDS011;41176;44.032;20.900;2023-02-08T15:52:29;18.80;;;8.23;;
50543;SDS011;41176;44.032;20.900;2023-02-08T15:54:57;13.50;;;7.70;;
50543;SDS011;41176;44.032;20.900;2023-02-08T15:57:36;29.65;;;12.63;;
50543;SDS011;41176;44.032;20.900;2023-02-08T16:02:40;18.23;;;9.77;;
50543;SDS011;41176;44.032;20.900;2023-02-08T16:05:28;16.65;;;8.68;;
50543;SDS011;41176;44.032;20.900;2023-02-08T16:07:53;14.10;;;9.98;;
50543;SDS011;41176;44.032;20.900;2023-02-08T16:10:39;26.52;;;9.32;;
50543;SDS011;41176;44.032;20.900;2023-02-08T16:13:24;12.77;;;8.10;;
50543;SDS011;41176;44.032;20.900;2023-02-08T16:15:53;10.82;;;7.18;;
50543;SDS011;41176;44.032;20.900;2023-02-08T16:26:57;6.78;;;5.40;;
50543;SDS011;41176;44.032;20.900;2023-02-08T16:29:30;11.05;;;6.88;;
50543;SDS011;41176;44.032;20.900;2023-02-08T16:32:05;11.05;;;5.75;;
50543;SDS011;41176;44.032;20.900;2023-02-08T16:34:51;13.85;;;5.63;;
50543;SDS011;41176;44.032;20.900;2023-02-08T16:39:58;7.88;;;3.42;;
50543;SDS011;41176;44.032;20.900;2023-02-08T16:42:35;4.47;;;3.60;;
50543;SDS011;41176;44.032;20.900;2023-02-08T16:47:46;7.57;;;4.85;;
50543;SDS011;41176;44.032;20.900;2023-02-08T16:50:14;7.80;;;3.90;;
50543;SDS011;41176;44.032;20.900;2023-02-08T16:52:43;10.38;;;4.78;;
50543;SDS011;41176;44.032;20.900;2023-02-08T16:55:15;6.55;;;2.95;;
50543;SDS011;41176;44.032;20.900;2023-02-08T16:57:45;6.07;;;4.13;;
50543;SDS011;41176;44.032;20.900;2023-02-08T17:00:14;4.13;;;3.78;;
50543;SDS011;41176;44.032;20.900;2023-02-08T17:02:42;7.07;;;3.83;;
50543;SDS011;41176;44.032;20.900;2023-02-08T17:05:08;6.18;;;3.72;;
50543;SDS011;41176;44.032;20.900;2023-02-08T17:07:34;4.53;;;2.95;;
50543;SDS011;41176;44.032;20.900;2023-02-08T17:10:01;4.07;;;3.53;;
50543;SDS011;41176;44.032;20.900;2023-02-08T17:12:28;8.32;;;4.43;;
50543;SDS011;41176;44.032;20.900;2023-02-08T17:14:53;8.90;;;4.72;;
50543;SDS011;41176;44.032;20.900;2023-02-08T17:17:19;4.47;;;4.00;;
50543;SDS011;41176;44.032;20.900;2023-02-08T17:19:45;7.15;;;4.60;;
50543;SDS011;41176;44.032;20.900;2023-02-08T17:22:11;4.53;;;3.28;;
50543;SDS011;41176;44.032;20.900;2023-02-08T17:24:37;5.50;;;4.55;;
50543;SDS011;41176;44.032;20.900;2023-02-08T17:27:02;3.75;;;2.92;;
50543;SDS011;41176;44.032;20.900;2023-02-08T17:29:28;4.97;;;3.15;;
50543;SDS011;41176;44.032;20.900;2023-02-08T17:31:54;5.25;;;1.67;;
50543;SDS011;41176;44.032;20.900;2023-02-08T17:34:20;7.55;;;2.47;;
50543;SDS011;41176;44.032;20.900;2023-02-08T17:36:45;5.20;;;3.03;;
50543;SDS011;41176;44.032;20.900;2023-02-08T17:39:11;5.80;;;4.07;;
50543;SDS011;41176;44.032;20.900;2023-02-08T17:41:39;6.30;;;3.58;;
50543;SDS011;41176;44.032;20.900;2023-02-08T17:44:04;8.55;;;4.97;;
50543;SDS011;41176;44.032;20.900;2023-02-08T17:46:31;7.03;;;2.85;;
50543;SDS011;41176;44.032;20.900;2023-02-08T17:48:56;4.40;;;3.50;;
50543;SDS011;41176;44.032;20.900;2023-02-08T17:51:25;7.72;;;4.75;;
50543;SDS011;41176;44.032;20.900;2023-02-08T17:53:52;11.27;;;4.53;;
50543;SDS011;41176;44.032;20.900;2023-02-08T17:56:19;7.43;;;3.47;;
50543;SDS011;41176;44.032;20.900;2023-02-08T17:58:48;4.55;;;3.60;;
50543;SDS011;41176;44.032;20.900;2023-02-08T18:01:20;5.60;;;3.60;;
50543;SDS011;41176;44.032;20.900;2023-02-08T18:03:49;9.05;;;4.90;;
50543;SDS011;41176;44.032;20.900;2023-02-08T18:06:16;9.20;;;4.72;;
50543;SDS011;41176;44.032;20.900;2023-02-08T18:08:44;4.93;;;3.28;;
50543;SDS011;41176;44.032;20.900;2023-02-08T18:11:11;6.35;;;3.90;;
50543;SDS011;41176;44.032;20.900;2023-02-08T18:13:48;13.57;;;7.10;;
50543;SDS011;41176;44.032;20.900;2023-02-08T18:16:17;7.88;;;4.13;;